createdAt,value
2019-04-09T00:00:42.869Z,1004.73
2019-04-09T00:01:42.854Z,1004.71
2019-04-09T00:02:42.895Z,1004.74
2019-04-09T00:03:43.147Z,1004.73
2019-04-09T00:04:43.613Z,1004.78
2019-04-09T00:05:42.673Z,1004.74
2019-04-09T00:06:42.641Z,1004.74
2019-04-09T00:07:53.973Z,1004.75
2019-04-09T00:08:43.502Z,1004.76
2019-04-09T00:09:43.397Z,1004.79
2019-04-09T00:10:43.320Z,1004.79
2019-04-09T00:11:42.541Z,1004.73
2019-04-09T00:12:42.413Z,1004.74
2019-04-09T00:13:42.345Z,1004.75
2019-04-09T00:14:42.468Z,1004.72
2019-04-09T00:15:42.346Z,1004.74
2019-04-09T00:16:42.233Z,1004.69
2019-04-09T00:17:42.283Z,1004.72
2019-04-09T00:18:42.174Z,1004.68
2019-04-09T00:19:42.111Z,1004.69
2019-04-09T00:20:42.067Z,1004.69
2019-04-09T00:21:42.025Z,1004.75
2019-04-09T00:22:42.020Z,1004.71
2019-04-09T00:23:42.426Z,1004.73
2019-04-09T00:24:41.903Z,1004.68
2019-04-09T00:25:42.593Z,1004.71
2019-04-09T00:26:48.407Z,1004.74
2019-04-09T00:27:41.782Z,1004.72
2019-04-09T00:28:41.775Z,1004.73
2019-04-09T00:29:42.100Z,1004.74
2019-04-09T00:30:42.357Z,1004.75
2019-04-09T00:31:41.630Z,1004.75
2019-04-09T00:32:41.588Z,1004.74
2019-04-09T00:33:42.296Z,1004.77
2019-04-09T00:34:42.274Z,1004.76
2019-04-09T00:35:42.120Z,1004.79
2019-04-09T00:36:42.186Z,1004.78
2019-04-09T00:37:42.075Z,1004.75
2019-04-09T00:38:41.376Z,1004.79
2019-04-09T00:39:41.305Z,1004.81
2019-04-09T00:40:42.109Z,1004.77
2019-04-09T00:41:42.107Z,1004.77
2019-04-09T00:42:41.390Z,1004.77
2019-04-09T00:43:41.506Z,1004.73
2019-04-09T00:44:41.251Z,1004.79
2019-04-09T00:45:41.067Z,1004.78
2019-04-09T00:46:41.042Z,1004.77
2019-04-09T00:47:40.984Z,1004.80
2019-04-09T00:48:40.950Z,1004.80
2019-04-09T00:49:41.597Z,1004.78
2019-04-09T00:50:41.701Z,1004.78
2019-04-09T00:51:41.530Z,1004.73
2019-04-09T00:52:40.787Z,1004.72
2019-04-09T00:53:41.246Z,1004.76
2019-04-09T00:54:41.563Z,1004.77
2019-04-09T00:55:41.551Z,1004.76
2019-04-09T00:56:42.458Z,1004.76
2019-04-09T00:57:40.592Z,1004.74
2019-04-09T00:58:40.939Z,1004.77
2019-04-09T00:59:40.504Z,1004.75
2019-04-09T01:00:43.206Z,1004.79
2019-04-09T01:01:40.432Z,1004.79
2019-04-09T01:02:40.913Z,1004.77
2019-04-09T01:03:40.974Z,1004.76
2019-04-09T01:04:40.306Z,1004.76
2019-04-09T01:05:40.265Z,1004.76
2019-04-09T01:06:41.257Z,1004.75
2019-04-09T01:07:41.130Z,1004.80
2019-04-09T01:08:40.154Z,1004.78
2019-04-09T01:09:40.112Z,1004.79
2019-04-09T01:10:40.922Z,1004.77
2019-04-09T01:11:40.050Z,1004.77
2019-04-09T01:12:41.017Z,1004.76
2019-04-09T01:13:40.584Z,1004.73
2019-04-09T01:14:40.044Z,1004.72
2019-04-09T01:15:40.840Z,1004.74
2019-04-09T01:16:40.290Z,1004.72
2019-04-09T01:17:40.103Z,1004.75
2019-04-09T01:18:39.746Z,1004.74
2019-04-09T01:19:40.267Z,1004.78
2019-04-09T01:20:40.258Z,1004.71
2019-04-09T01:21:39.631Z,1004.76
2019-04-09T01:22:39.618Z,1004.77
2019-04-09T01:23:40.553Z,1004.72
2019-04-09T01:24:40.471Z,1004.75
2019-04-09T01:25:39.464Z,1004.72
2019-04-09T01:26:39.531Z,1004.76
2019-04-09T01:27:39.508Z,1004.74
2019-04-09T01:28:39.369Z,1004.73
2019-04-09T01:29:39.421Z,1004.72
2019-04-09T01:30:39.264Z,1004.71
2019-04-09T01:31:39.332Z,1004.70
2019-04-09T01:32:39.672Z,1004.73
2019-04-09T01:33:39.150Z,1004.70
2019-04-09T01:34:39.132Z,1004.70
2019-04-09T01:35:39.069Z,1004.71
2019-04-09T01:36:39.554Z,1004.69
2019-04-09T01:37:39.400Z,1004.70
2019-04-09T01:38:38.952Z,1004.70
2019-04-09T01:39:38.924Z,1004.71
2019-04-09T01:40:39.720Z,1004.76
2019-04-09T01:41:39.716Z,1004.73
2019-04-09T01:42:38.780Z,1004.72
2019-04-09T01:43:38.815Z,1004.70
2019-04-09T01:44:38.746Z,1004.69
2019-04-09T01:45:38.841Z,1004.70
2019-04-09T01:46:40.083Z,1004.65
2019-04-09T01:47:38.602Z,1004.67
2019-04-09T01:48:38.599Z,1004.67
2019-04-09T01:49:38.523Z,1004.66
2019-04-09T01:50:38.484Z,1004.67
2019-04-09T01:51:39.456Z,1004.67
2019-04-09T01:52:38.541Z,1004.67
2019-04-09T01:53:38.592Z,1004.67
2019-04-09T01:54:38.309Z,1004.65
2019-04-09T01:55:38.264Z,1004.68
2019-04-09T01:56:38.784Z,1004.70
2019-04-09T01:57:38.178Z,1004.71
2019-04-09T01:58:38.761Z,1004.71
2019-04-09T01:59:38.519Z,1004.69
2019-04-09T02:00:38.365Z,1004.74
2019-04-09T02:01:38.103Z,1004.71
2019-04-09T02:02:37.981Z,1004.69
2019-04-09T02:03:37.938Z,1004.74
2019-04-09T02:04:37.902Z,1004.74
2019-04-09T02:05:38.014Z,1004.73
2019-04-09T02:06:37.821Z,1004.75
2019-04-09T02:07:37.800Z,1004.75
2019-04-09T02:08:38.225Z,1004.75
2019-04-09T02:09:38.061Z,1004.74
2019-04-09T02:10:37.657Z,1004.74
2019-04-09T02:11:38.302Z,1004.72
2019-04-09T02:12:37.579Z,1004.72
2019-04-09T02:13:37.536Z,1004.70
2019-04-09T02:14:38.128Z,1004.67
2019-04-09T02:15:37.446Z,1004.65
2019-04-09T02:16:37.439Z,1004.67
2019-04-09T02:17:38.296Z,1004.71
2019-04-09T02:18:38.265Z,1004.69
2019-04-09T02:19:38.138Z,1004.72
2019-04-09T02:20:37.449Z,1004.72
2019-04-09T02:21:37.233Z,1004.70
2019-04-09T02:22:37.167Z,1004.66
2019-04-09T02:23:37.124Z,1004.68
2019-04-09T02:24:37.095Z,1004.70
2019-04-09T02:25:37.232Z,1004.70
2019-04-09T02:26:37.110Z,1004.68
2019-04-09T02:27:42.937Z,1004.70
2019-04-09T02:28:37.859Z,1004.65
2019-04-09T02:29:36.880Z,1004.67
2019-04-09T02:30:37.552Z,1004.64
2019-04-09T02:31:36.900Z,1004.68
2019-04-09T02:32:36.783Z,1004.67
2019-04-09T02:33:38.867Z,1004.64
2019-04-09T02:34:37.488Z,1004.66
2019-04-09T02:35:37.325Z,1004.65
2019-04-09T02:36:38.721Z,1004.64
2019-04-09T02:37:36.582Z,1004.64
2019-04-09T02:38:37.747Z,1004.68
2019-04-09T02:39:36.480Z,1004.66
2019-04-09T02:40:36.432Z,1004.67
2019-04-09T02:41:37.317Z,1004.65
2019-04-09T02:42:37.226Z,1004.65
2019-04-09T02:43:37.113Z,1004.70
2019-04-09T02:44:36.404Z,1004.69
2019-04-09T02:45:38.000Z,1004.67
2019-04-09T02:46:36.349Z,1004.67
2019-04-09T02:47:36.263Z,1004.64
2019-04-09T02:48:36.117Z,1004.67
2019-04-09T02:49:37.287Z,1004.66
2019-04-09T02:50:36.955Z,1004.67
2019-04-09T02:51:35.990Z,1004.68
2019-04-09T02:52:35.957Z,1004.69
2019-04-09T02:53:35.928Z,1004.71
2019-04-09T02:54:35.888Z,1004.71
2019-04-09T02:55:35.818Z,1004.68
2019-04-09T02:56:36.652Z,1004.68
2019-04-09T02:57:47.191Z,1004.67
2019-04-09T02:58:36.535Z,1004.70
2019-04-09T02:59:36.477Z,1004.69
2019-04-09T03:00:35.617Z,1004.69
2019-04-09T03:01:36.510Z,1004.71
2019-04-09T03:02:36.398Z,1004.69
2019-04-09T03:03:35.543Z,1004.72
2019-04-09T03:04:35.447Z,1004.72
2019-04-09T03:05:36.443Z,1004.71
2019-04-09T03:06:36.388Z,1004.76
2019-04-09T03:07:35.326Z,1004.76
2019-04-09T03:08:35.313Z,1004.77
2019-04-09T03:09:35.259Z,1004.77
2019-04-09T03:10:35.212Z,1004.76
2019-04-09T03:11:35.874Z,1004.75
2019-04-09T03:12:35.127Z,1004.74
2019-04-09T03:13:35.103Z,1004.74
2019-04-09T03:14:35.038Z,1004.75
2019-04-09T03:15:34.995Z,1004.75
2019-04-09T03:16:35.689Z,1004.76
2019-04-09T03:17:35.721Z,1004.75
2019-04-09T03:18:35.782Z,1004.76
2019-04-09T03:19:34.856Z,1004.76
2019-04-09T03:22:14.985Z,1004.74
2019-04-09T03:23:14.077Z,1004.75
2019-04-09T03:24:14.279Z,1004.73
2019-04-09T03:25:14.170Z,1004.76
2019-04-09T03:26:13.923Z,1004.74
2019-04-09T03:27:14.145Z,1004.78
2019-04-09T03:28:15.122Z,1004.74
2019-04-09T03:29:14.002Z,1004.80
2019-04-09T03:30:15.225Z,1004.80
2019-04-09T03:31:14.191Z,1004.81
2019-04-09T03:32:14.581Z,1004.80
2019-04-09T03:33:13.789Z,1004.79
2019-04-09T03:34:13.595Z,1004.79
2019-04-09T03:35:13.554Z,1004.80
2019-04-09T03:36:14.561Z,1004.81
2019-04-09T03:37:13.474Z,1004.82
2019-04-09T03:38:13.669Z,1004.84
2019-04-09T03:39:13.584Z,1004.80
2019-04-09T03:40:13.377Z,1004.80
2019-04-09T03:41:14.385Z,1004.80
2019-04-09T03:42:14.251Z,1004.80
2019-04-09T03:43:14.827Z,1004.81
2019-04-09T03:44:13.186Z,1004.80
2019-04-09T03:45:14.138Z,1004.79
2019-04-09T03:46:13.757Z,1004.82
2019-04-09T03:47:13.754Z,1004.80
2019-04-09T03:48:13.189Z,1004.83
2019-04-09T03:49:12.983Z,1004.82
2019-04-09T03:50:12.972Z,1004.82
2019-04-09T03:51:12.967Z,1004.83
2019-04-09T03:52:12.859Z,1004.82
2019-04-09T03:53:12.813Z,1004.82
2019-04-09T03:54:12.775Z,1004.80
2019-04-09T03:55:12.798Z,1004.78
2019-04-09T03:56:13.670Z,1004.79
2019-04-09T03:57:13.187Z,1004.79
2019-04-09T03:58:17.962Z,1004.81
2019-04-09T03:59:12.970Z,1004.83
2019-04-09T04:00:12.593Z,1004.83
2019-04-09T04:01:12.512Z,1004.84
2019-04-09T04:02:13.536Z,1004.85
2019-04-09T04:03:12.418Z,1004.82
2019-04-09T04:04:13.019Z,1004.84
2019-04-09T04:05:12.327Z,1004.82
2019-04-09T04:06:12.301Z,1004.83
2019-04-09T04:07:12.264Z,1004.81
2019-04-09T04:08:13.009Z,1004.86
2019-04-09T04:09:12.293Z,1004.84
2019-04-09T04:10:12.127Z,1004.86
2019-04-09T04:11:12.086Z,1004.89
2019-04-09T04:12:12.603Z,1004.92
2019-04-09T04:13:12.701Z,1004.88
2019-04-09T04:14:11.966Z,1004.94
2019-04-09T04:15:11.983Z,1004.96
2019-04-09T04:16:11.867Z,1005.02
2019-04-09T04:17:12.388Z,1005.00
2019-04-09T04:18:11.783Z,1005.00
2019-04-09T04:19:11.901Z,1004.96
2019-04-09T04:20:11.706Z,1004.99
2019-04-09T04:21:21.427Z,1004.94
2019-04-09T04:22:11.908Z,1004.98
2019-04-09T04:23:11.598Z,1004.95
2019-04-09T04:24:20.812Z,1004.97
2019-04-09T04:25:12.231Z,1004.95
2019-04-09T04:26:11.694Z,1004.98
2019-04-09T04:27:21.191Z,1005.02
2019-04-09T04:28:23.016Z,1005.01
2019-04-09T04:29:21.256Z,1004.98
2019-04-09T04:30:11.432Z,1004.98
2019-04-09T04:31:11.244Z,1005.00
2019-04-09T04:32:11.203Z,1005.03
2019-04-09T04:33:11.198Z,1004.99
2019-04-09T04:34:11.124Z,1004.99
2019-04-09T04:35:11.082Z,1004.98
2019-04-09T04:36:11.031Z,1005.00
2019-04-09T04:37:10.992Z,1004.99
2019-04-09T04:38:10.955Z,1005.02
2019-04-09T04:39:10.942Z,1005.02
2019-04-09T04:40:10.893Z,1005.05
2019-04-09T04:41:10.828Z,1005.07
2019-04-09T04:42:11.571Z,1005.08
2019-04-09T04:43:10.741Z,1005.07
2019-04-09T04:44:10.710Z,1005.08
2019-04-09T04:45:11.565Z,1005.11
2019-04-09T04:46:11.002Z,1005.08
2019-04-09T04:47:10.583Z,1005.08
2019-04-09T04:48:11.223Z,1005.10
2019-04-09T04:49:10.859Z,1005.09
2019-04-09T04:50:10.451Z,1005.12
2019-04-09T04:51:10.526Z,1005.10
2019-04-09T04:52:11.186Z,1005.11
2019-04-09T04:53:10.504Z,1005.13
2019-04-09T04:54:11.202Z,1005.12
2019-04-09T04:55:10.585Z,1005.10
2019-04-09T04:56:10.204Z,1005.09
2019-04-09T04:57:10.381Z,1005.10
2019-04-09T04:58:10.419Z,1005.14
2019-04-09T04:59:10.090Z,1005.13
2019-04-09T05:00:10.887Z,1005.13
2019-04-09T05:01:09.990Z,1005.11
2019-04-09T05:02:10.859Z,1005.13
2019-04-09T05:03:09.910Z,1005.15
2019-04-09T05:04:09.903Z,1005.15
2019-04-09T05:05:10.731Z,1005.15
2019-04-09T05:06:09.791Z,1005.16
2019-04-09T05:07:09.744Z,1005.18
2019-04-09T05:08:09.723Z,1005.16
2019-04-09T05:09:10.347Z,1005.19
2019-04-09T05:10:09.626Z,1005.20
2019-04-09T05:11:10.379Z,1005.21
2019-04-09T05:12:09.733Z,1005.24
2019-04-09T05:13:09.494Z,1005.25
2019-04-09T05:14:09.518Z,1005.24
2019-04-09T05:15:09.415Z,1005.27
2019-04-09T05:16:10.212Z,1005.27
2019-04-09T05:17:10.034Z,1005.24
2019-04-09T05:18:09.299Z,1005.26
2019-04-09T05:19:09.278Z,1005.29
2019-04-09T05:20:09.197Z,1005.28
2019-04-09T05:21:10.095Z,1005.31
2019-04-09T05:22:09.114Z,1005.32
2019-04-09T05:23:09.490Z,1005.31
2019-04-09T05:24:09.836Z,1005.34
2019-04-09T05:25:09.209Z,1005.32
2019-04-09T05:26:09.570Z,1005.38
2019-04-09T05:27:08.907Z,1005.37
2019-04-09T05:28:08.872Z,1005.34
2019-04-09T05:29:09.986Z,1005.34
2019-04-09T05:30:08.812Z,1005.37
2019-04-09T05:31:08.772Z,1005.35
2019-04-09T05:32:09.621Z,1005.40
2019-04-09T05:33:08.663Z,1005.42
2019-04-09T05:34:09.449Z,1005.42
2019-04-09T05:35:08.578Z,1005.42
2019-04-09T05:36:09.767Z,1005.42
2019-04-09T05:37:08.671Z,1005.41
2019-04-09T05:38:09.298Z,1005.48
2019-04-09T05:39:09.266Z,1005.43
2019-04-09T05:40:08.545Z,1005.46
2019-04-09T05:41:08.320Z,1005.45
2019-04-09T05:42:08.706Z,1005.49
2019-04-09T05:43:08.245Z,1005.53
2019-04-09T05:44:08.331Z,1005.53
2019-04-09T05:45:08.154Z,1005.55
2019-04-09T05:46:08.137Z,1005.54
2019-04-09T05:47:08.187Z,1005.56
2019-04-09T05:48:08.041Z,1005.59
2019-04-09T05:49:07.998Z,1005.57
2019-04-09T05:50:08.790Z,1005.57
2019-04-09T05:51:08.881Z,1005.58
2019-04-09T05:52:08.127Z,1005.61
2019-04-09T05:53:07.820Z,1005.57
2019-04-09T05:54:07.785Z,1005.63
2019-04-09T05:55:08.494Z,1005.61
2019-04-09T05:56:07.727Z,1005.63
2019-04-09T05:57:07.664Z,1005.61
2019-04-09T05:58:07.614Z,1005.64
2019-04-09T05:59:10.086Z,1005.68
2019-04-09T06:00:08.026Z,1005.68
2019-04-09T06:01:08.521Z,1005.67
2019-04-09T06:02:07.453Z,1005.67
2019-04-09T06:03:07.480Z,1005.67
2019-04-09T06:04:07.508Z,1005.69
2019-04-09T06:05:07.323Z,1005.69
2019-04-09T06:06:07.302Z,1005.73
2019-04-09T06:07:07.272Z,1005.68
2019-04-09T06:08:07.342Z,1005.70
2019-04-09T06:09:07.366Z,1005.67
2019-04-09T06:10:07.267Z,1005.65
2019-04-09T06:11:07.534Z,1005.66
2019-04-09T06:12:07.234Z,1005.68
2019-04-09T06:13:06.995Z,1005.68
2019-04-09T06:14:06.962Z,1005.66
2019-04-09T06:15:07.224Z,1005.66
2019-04-09T06:16:07.771Z,1005.64
2019-04-09T06:17:07.330Z,1005.69
2019-04-09T06:18:07.918Z,1005.69
2019-04-09T06:19:07.103Z,1005.66
2019-04-09T06:20:06.790Z,1005.67
2019-04-09T06:21:08.089Z,1005.65
2019-04-09T06:22:06.634Z,1005.67
2019-04-09T06:23:06.613Z,1005.63
2019-04-09T06:24:06.861Z,1005.67
2019-04-09T06:25:06.505Z,1005.61
2019-04-09T06:26:07.293Z,1005.64
2019-04-09T06:27:09.501Z,1005.66
2019-04-09T06:28:06.385Z,1005.68
2019-04-09T06:29:14.730Z,1005.66
2019-04-09T06:30:06.298Z,1005.69
2019-04-09T06:31:06.829Z,1005.70
2019-04-09T06:32:06.765Z,1005.66
2019-04-09T06:33:06.203Z,1005.67
2019-04-09T06:34:06.848Z,1005.67
2019-04-09T06:35:06.094Z,1005.71
2019-04-09T06:36:06.049Z,1005.71
2019-04-09T06:37:06.256Z,1005.75
2019-04-09T06:38:06.875Z,1005.73
2019-04-09T06:39:06.159Z,1005.71
2019-04-09T06:40:06.161Z,1005.71
2019-04-09T06:41:06.684Z,1005.78
2019-04-09T06:42:06.635Z,1005.72
2019-04-09T06:43:05.934Z,1005.72
2019-04-09T06:44:05.723Z,1005.74
2019-04-09T06:45:05.900Z,1005.70
2019-04-09T06:46:05.659Z,1005.74
2019-04-09T06:47:06.600Z,1005.71
2019-04-09T06:48:05.591Z,1005.75
2019-04-09T06:49:06.065Z,1005.76
2019-04-09T06:50:05.477Z,1005.79
2019-04-09T06:51:05.454Z,1005.75
2019-04-09T06:52:06.241Z,1005.76
2019-04-09T06:53:05.385Z,1005.76
2019-04-09T06:54:06.021Z,1005.78
2019-04-09T06:55:10.418Z,1005.75
2019-04-09T06:56:05.321Z,1005.76
2019-04-09T06:57:06.061Z,1005.73
2019-04-09T06:58:06.141Z,1005.75
2019-04-09T06:59:05.112Z,1005.75
2019-04-09T07:00:05.097Z,1005.75
2019-04-09T07:01:05.036Z,1005.77
2019-04-09T07:02:05.807Z,1005.77
2019-04-09T07:03:05.004Z,1005.81
2019-04-09T07:04:05.780Z,1005.76
2019-04-09T07:05:04.975Z,1005.78
2019-04-09T07:06:04.842Z,1005.75
2019-04-09T07:07:05.024Z,1005.81
2019-04-09T07:08:05.063Z,1005.88
2019-04-09T07:09:06.658Z,1005.86
2019-04-09T07:10:05.604Z,1005.79
2019-04-09T07:11:11.819Z,1005.81
2019-04-09T07:12:07.565Z,1005.82
2019-04-09T07:13:05.209Z,1005.83
2019-04-09T07:14:04.551Z,1005.82
2019-04-09T07:15:05.071Z,1005.85
2019-04-09T07:16:05.385Z,1005.80
2019-04-09T07:17:04.381Z,1005.80
2019-04-09T07:18:04.922Z,1005.80
2019-04-09T07:19:05.027Z,1005.81
2019-04-09T07:20:05.312Z,1005.84
2019-04-09T07:21:04.245Z,1005.84
2019-04-09T07:22:04.692Z,1005.84
2019-04-09T07:23:04.139Z,1005.80
2019-04-09T07:24:04.824Z,1005.85
2019-04-09T07:25:04.062Z,1005.85
2019-04-09T07:26:05.283Z,1005.85
2019-04-09T07:27:04.374Z,1005.84
2019-04-09T07:28:04.380Z,1005.85
2019-04-09T07:29:03.942Z,1005.85
2019-04-09T07:30:08.703Z,1005.82
2019-04-09T07:31:05.221Z,1005.87
2019-04-09T07:32:05.481Z,1005.87
2019-04-09T07:33:09.938Z,1005.86
2019-04-09T07:34:03.695Z,1005.87
2019-04-09T07:35:04.320Z,1005.89
2019-04-09T07:36:05.858Z,1005.90
2019-04-09T07:37:07.613Z,1005.92
2019-04-09T07:38:03.641Z,1005.92
2019-04-09T07:39:03.950Z,1005.91
2019-04-09T07:40:04.113Z,1005.90
2019-04-09T07:41:06.218Z,1005.88
2019-04-09T07:42:04.088Z,1005.91
2019-04-09T07:43:05.199Z,1005.92
2019-04-09T07:44:04.182Z,1005.96
2019-04-09T07:45:08.218Z,1005.93
2019-04-09T07:46:04.258Z,1005.93
2019-04-09T07:47:03.176Z,1005.96
2019-04-09T07:48:03.132Z,1005.94
2019-04-09T07:49:03.836Z,1006.04
2019-04-09T07:50:07.142Z,1006.02
2019-04-09T07:51:03.012Z,1006.01
2019-04-09T07:52:03.126Z,1006.00
2019-04-09T07:53:02.925Z,1006.07
2019-04-09T07:54:04.887Z,1006.03
2019-04-09T07:55:03.189Z,1006.02
2019-04-09T07:56:03.043Z,1006.07
2019-04-09T07:57:04.243Z,1006.02
2019-04-09T07:58:06.786Z,1006.03
2019-04-09T07:59:03.311Z,1006.02
2019-04-09T08:00:12.010Z,1006.07
2019-04-09T08:01:02.630Z,1006.07
2019-04-09T08:02:02.567Z,1006.13
2019-04-09T08:03:02.536Z,1006.10
2019-04-09T08:04:05.191Z,1006.09
2019-04-09T08:05:02.965Z,1006.21
2019-04-09T08:06:02.544Z,1006.09
2019-04-09T08:07:04.651Z,1006.14
2019-04-09T08:08:03.448Z,1006.14
2019-04-09T08:09:02.491Z,1006.12
2019-04-09T08:10:02.287Z,1006.18
2019-04-09T08:11:04.474Z,1006.18
2019-04-09T08:12:02.805Z,1006.13
2019-04-09T08:13:02.127Z,1006.22
2019-04-09T08:14:02.106Z,1006.20
2019-04-09T08:15:03.020Z,1006.18
2019-04-09T08:16:06.301Z,1006.16
2019-04-09T08:17:02.425Z,1006.21
2019-04-09T08:18:06.219Z,1006.20
2019-04-09T08:19:02.067Z,1006.24
2019-04-09T08:20:01.866Z,1006.26
2019-04-09T08:21:02.672Z,1006.27
2019-04-09T08:22:06.881Z,1006.27
2019-04-09T08:23:02.662Z,1006.38
2019-04-09T08:24:01.851Z,1006.31
2019-04-09T08:25:01.828Z,1006.32
2019-04-09T08:26:03.777Z,1006.34
2019-04-09T08:27:01.695Z,1006.43
2019-04-09T08:28:01.560Z,1006.44
2019-04-09T08:29:01.565Z,1006.46
2019-04-09T08:30:16.595Z,1006.39
2019-04-09T08:31:01.586Z,1006.36
2019-04-09T08:32:12.451Z,1006.44
2019-04-09T08:33:02.177Z,1006.38
2019-04-09T08:34:01.309Z,1006.50
2019-04-09T08:35:04.995Z,1006.42
2019-04-09T08:36:03.498Z,1006.44
2019-04-09T08:37:01.223Z,1006.49
2019-04-09T08:38:02.319Z,1006.46
2019-04-09T08:39:03.396Z,1006.51
2019-04-09T08:40:01.791Z,1006.51
2019-04-09T08:41:01.049Z,1006.58
2019-04-09T08:42:01.031Z,1006.55
2019-04-09T08:43:04.659Z,1006.59
2019-04-09T08:44:05.036Z,1006.64
2019-04-09T08:45:00.961Z,1006.66
2019-04-09T08:46:01.768Z,1006.60
2019-04-09T08:47:03.287Z,1006.60
2019-04-09T08:48:01.265Z,1006.60
2019-04-09T08:49:01.993Z,1006.60
2019-04-09T08:50:01.277Z,1006.65
2019-04-09T08:51:03.076Z,1006.65
2019-04-09T08:52:00.638Z,1006.69
2019-04-09T08:53:00.616Z,1006.76
2019-04-09T08:54:00.559Z,1006.67
2019-04-09T08:55:01.491Z,1006.68
2019-04-09T08:56:05.870Z,1006.74
2019-04-09T08:57:00.443Z,1006.73
2019-04-09T08:58:01.321Z,1006.78
2019-04-09T08:59:00.969Z,1006.74
2019-04-09T09:00:00.340Z,1006.79
2019-04-09T09:01:26.611Z,1006.76
2019-04-09T09:02:12.541Z,1006.73
2019-04-09T09:03:00.276Z,1006.78
2019-04-09T09:04:06.057Z,1006.72
2019-04-09T09:05:08.890Z,1006.68
2019-04-09T09:06:03.932Z,1006.78
2019-04-09T09:07:00.124Z,1006.82
2019-04-09T09:08:03.759Z,1006.85
2019-04-09T09:09:01.241Z,1006.86
2019-04-09T09:10:01.254Z,1006.81
2019-04-09T09:11:00.056Z,1006.85
2019-04-09T09:12:04.967Z,1006.80
2019-04-09T09:12:59.897Z,1006.73
2019-04-09T09:14:00.237Z,1006.63
2019-04-09T09:14:59.807Z,1006.68
2019-04-09T09:15:59.824Z,1006.74
2019-04-09T09:17:04.940Z,1006.84
2019-04-09T09:17:59.712Z,1006.75
2019-04-09T09:19:00.450Z,1006.78
2019-04-09T09:20:02.083Z,1006.84
2019-04-09T09:21:17.504Z,1006.85
2019-04-09T09:22:04.268Z,1006.76
2019-04-09T09:23:00.780Z,1006.75
2019-04-09T09:24:00.715Z,1006.70
2019-04-09T09:24:59.818Z,1006.65
2019-04-09T09:26:03.250Z,1006.64
2019-04-09T09:26:59.377Z,1006.60
2019-04-09T09:28:01.651Z,1006.57
2019-04-09T09:28:59.737Z,1006.55
2019-04-09T09:29:59.886Z,1006.57
2019-04-09T09:31:10.232Z,1006.53
2019-04-09T09:32:01.223Z,1006.52
2019-04-09T09:32:59.715Z,1006.53
2019-04-09T09:33:59.140Z,1006.44
2019-04-09T09:35:02.661Z,1006.42
2019-04-09T09:36:05.418Z,1006.41
2019-04-09T09:36:59.030Z,1006.46
2019-04-09T09:37:59.865Z,1006.46
2019-04-09T09:39:01.339Z,1006.49
2019-04-09T09:40:00.929Z,1006.55
2019-04-09T09:41:02.698Z,1006.61
2019-04-09T09:41:59.079Z,1006.58
2019-04-09T09:42:59.411Z,1006.53
2019-04-09T09:43:58.817Z,1006.47
2019-04-09T09:45:03.542Z,1006.45
2019-04-09T09:46:02.110Z,1006.44
2019-04-09T09:46:58.679Z,1006.44
2019-04-09T09:47:59.817Z,1006.48
2019-04-09T09:49:00.501Z,1006.50
2019-04-09T09:50:03.116Z,1006.45
2019-04-09T09:50:58.545Z,1006.44
2019-04-09T09:51:58.805Z,1006.44
2019-04-09T09:53:00.326Z,1006.47
2019-04-09T09:54:01.943Z,1006.52
2019-04-09T09:54:58.423Z,1006.63
2019-04-09T09:55:59.899Z,1006.60
2019-04-09T09:56:58.490Z,1006.57
2019-04-09T09:57:58.296Z,1006.61
2019-04-09T09:58:58.554Z,1006.61
2019-04-09T10:00:02.776Z,1006.66
2019-04-09T10:01:08.152Z,1006.64
2019-04-09T10:02:02.294Z,1006.64
2019-04-09T10:02:58.603Z,1006.69
2019-04-09T10:03:58.561Z,1006.72
2019-04-09T10:04:59.296Z,1006.73
2019-04-09T10:06:00.958Z,1006.63
2019-04-09T10:06:58.001Z,1006.59
2019-04-09T10:08:03.139Z,1006.50
2019-04-09T10:08:58.335Z,1006.47
2019-04-09T10:09:57.883Z,1006.44
2019-04-09T10:11:00.182Z,1006.41
2019-04-09T10:11:57.972Z,1006.49
2019-04-09T10:13:00.959Z,1006.41
2019-04-09T10:13:58.631Z,1006.44
2019-04-09T10:15:01.813Z,1006.41
2019-04-09T10:15:57.730Z,1006.47
2019-04-09T10:16:57.667Z,1006.47
2019-04-09T10:18:01.231Z,1006.44
2019-04-09T10:19:04.503Z,1006.43
2019-04-09T10:20:00.084Z,1006.40
2019-04-09T10:20:57.517Z,1006.40
2019-04-09T10:22:00.225Z,1006.37
2019-04-09T10:22:58.822Z,1006.34
2019-04-09T10:24:07.302Z,1006.36
2019-04-09T10:24:57.360Z,1006.34
2019-04-09T10:26:01.913Z,1006.37
2019-04-09T10:26:57.288Z,1006.37
2019-04-09T10:27:58.000Z,1006.46
2019-04-09T10:29:00.476Z,1006.49
2019-04-09T10:29:57.181Z,1006.52
2019-04-09T10:30:58.628Z,1006.53
2019-04-09T10:31:57.112Z,1006.51
2019-04-09T10:32:57.106Z,1006.52
2019-04-09T10:33:57.598Z,1006.53
2019-04-09T10:34:59.421Z,1006.54
2019-04-09T10:35:57.187Z,1006.54
2019-04-09T10:36:57.249Z,1006.53
2019-04-09T10:37:56.980Z,1006.58
2019-04-09T10:38:59.009Z,1006.59
2019-04-09T10:39:57.108Z,1006.55
2019-04-09T10:40:56.831Z,1006.55
2019-04-09T10:41:59.191Z,1006.56
2019-04-09T10:42:56.750Z,1006.55
2019-04-09T10:43:57.209Z,1006.52
2019-04-09T10:44:57.300Z,1006.59
2019-04-09T10:45:59.607Z,1006.52
2019-04-09T10:46:56.623Z,1006.47
2019-04-09T10:47:56.589Z,1006.51
2019-04-09T10:48:56.656Z,1006.50
2019-04-09T10:49:57.643Z,1006.47
2019-04-09T10:50:56.577Z,1006.46
2019-04-09T10:51:57.595Z,1006.46
2019-04-09T10:52:57.122Z,1006.48
2019-04-09T10:53:56.469Z,1006.49
2019-04-09T10:54:57.422Z,1006.47
2019-04-09T10:55:56.832Z,1006.47
2019-04-09T10:56:58.126Z,1006.49
2019-04-09T10:57:56.404Z,1006.45
2019-04-09T10:58:57.069Z,1006.47
2019-04-09T10:59:57.055Z,1006.44
2019-04-09T11:00:56.672Z,1006.41
2019-04-09T11:01:57.226Z,1006.38
2019-04-09T11:03:00.133Z,1006.40
2019-04-09T11:03:56.827Z,1006.36
2019-04-09T11:04:56.031Z,1006.44
2019-04-09T11:05:59.821Z,1006.32
2019-04-09T11:06:56.014Z,1006.40
2019-04-09T11:07:56.220Z,1006.34
2019-04-09T11:08:55.913Z,1006.32
2019-04-09T11:09:58.932Z,1006.32
2019-04-09T11:10:56.798Z,1006.29
2019-04-09T11:11:57.297Z,1006.31
2019-04-09T11:12:58.757Z,1006.29
2019-04-09T11:13:56.655Z,1006.31
2019-04-09T11:14:55.957Z,1006.34
2019-04-09T11:15:58.085Z,1006.31
2019-04-09T11:16:55.643Z,1006.30
2019-04-09T11:17:55.615Z,1006.31
2019-04-09T11:18:55.939Z,1006.29
2019-04-09T11:19:58.231Z,1006.33
2019-04-09T11:20:56.215Z,1006.30
2019-04-09T11:21:56.349Z,1006.32
2019-04-09T11:22:58.101Z,1006.30
2019-04-09T11:23:59.283Z,1006.30
2019-04-09T11:24:58.021Z,1006.23
2019-04-09T11:25:55.746Z,1006.32
2019-04-09T11:26:56.122Z,1006.29
2019-04-09T11:27:55.294Z,1006.33
2019-04-09T11:28:56.287Z,1006.39
2019-04-09T11:29:55.222Z,1006.29
2019-04-09T11:30:55.193Z,1006.33
2019-04-09T11:32:03.682Z,1006.27
2019-04-09T11:32:56.056Z,1006.32
2019-04-09T11:33:55.308Z,1006.29
2019-04-09T11:34:55.517Z,1006.26
2019-04-09T11:35:55.029Z,1006.26
2019-04-09T11:36:55.046Z,1006.26
2019-04-09T11:37:55.112Z,1006.34
2019-04-09T11:38:54.934Z,1006.24
2019-04-09T11:39:54.905Z,1006.24
2019-04-09T11:40:55.762Z,1006.21
2019-04-09T11:41:55.101Z,1006.29
2019-04-09T11:42:55.951Z,1006.31
2019-04-09T11:43:54.794Z,1006.20
2019-04-09T11:44:55.486Z,1006.26
2019-04-09T11:45:55.694Z,1006.26
2019-04-09T11:46:54.887Z,1006.21
2019-04-09T11:47:55.085Z,1006.22
2019-04-09T11:48:54.600Z,1006.28
2019-04-09T11:49:54.580Z,1006.21
2019-04-09T11:50:54.546Z,1006.24
2019-04-09T11:51:54.511Z,1006.27
2019-04-09T11:52:56.122Z,1006.25
2019-04-09T11:53:54.567Z,1006.31
2019-04-09T11:54:54.639Z,1006.22
2019-04-09T11:55:54.370Z,1006.24
2019-04-09T11:56:54.337Z,1006.24
2019-04-09T11:57:55.202Z,1006.22
2019-04-09T11:58:55.072Z,1006.21
2019-04-09T11:59:54.269Z,1006.29
2019-04-09T12:00:54.386Z,1006.27
2019-04-09T12:02:03.037Z,1006.35
2019-04-09T12:02:54.830Z,1006.30
2019-04-09T12:03:55.042Z,1006.19
2019-04-09T12:04:54.167Z,1006.23
2019-04-09T12:05:54.041Z,1006.26
2019-04-09T12:06:54.009Z,1006.09